Time;durP1;ratioP1;P1;durP2;ratioP2;P2;SDS_P1;SDS_P2;PMS_P1;PMS_P2;Temp;Humidity;BMP_temperature;BMP_pressure;BME280_temperature;BME280_humidity;BME280_pressure;Samples;Min_cycle;Max_cycle;Signal;HPM_P1;HPM_P2
2021/09/19 00:01:57;;;;;;;;;11.00;8.00;;;;;;;;5026256;28;45329;-84
2021/09/19 00:04:23;;;;;;;;;11.75;7.50;;;;;;;;5044653;28;45401;-84
2021/09/19 00:06:48;;;;;;;;;10.75;9.00;;;;;;;;5024592;28;45680;-83
2021/09/19 00:09:13;;;;;;;;;11.25;10.25;;;;;;;;5026425;28;45420;-84
2021/09/19 00:11:39;;;;;;;;;9.00;8.00;;;;;;;;5045309;28;45233;-83
2021/09/19 00:14:04;;;;;;;;;12.25;9.00;;;;;;;;5042755;28;45451;-84
2021/09/19 00:16:29;;;;;;;;;7.25;7.25;;;;;;;;5024101;28;46910;-84
2021/09/19 00:18:54;;;;;;;;;7.67;7.00;;;;;;;;5044723;28;45468;-84
2021/09/19 00:21:20;;;;;;;;;7.67;7.67;;;;;;;;5043163;28;45457;-84
2021/09/19 00:23:45;;;;;;;;;10.50;10.50;;;;;;;;5039685;28;45237;-84
2021/09/19 00:26:11;;;;;;;;;9.67;8.33;;;;;;;;5039863;28;45401;-84
2021/09/19 00:28:36;;;;;;;;;9.00;8.67;;;;;;;;5039901;28;45430;-84
2021/09/19 00:31:01;;;;;;;;;6.33;6.33;;;;;;;;5021904;28;45418;-84
2021/09/19 00:33:27;;;;;;;;;7.75;6.50;;;;;;;;5039803;28;45478;-84
2021/09/19 00:35:52;;;;;;;;;5.25;5.25;;;;;;;;5039675;28;45372;-84
2021/09/19 00:38:17;;;;;;;;;7.00;7.00;;;;;;;;5021709;28;45251;-84
2021/09/19 00:40:42;;;;;;;;;9.00;7.00;;;;;;;;5039774;28;45507;-84
2021/09/19 00:43:07;;;;;;;;;6.00;6.00;;;;;;;;5039904;28;45418;-84
2021/09/19 00:45:33;;;;;;;;;7.33;6.00;;;;;;;;5023094;28;47505;-84
2021/09/19 00:47:59;;;;;;;;;7.25;7.25;;;;;;;;5039453;28;45358;-83
2021/09/19 00:50:25;;;;;;;;;7.50;6.50;;;;;;;;5041368;28;45287;-84
2021/09/19 00:52:51;;;;;;;;;8.50;7.25;;;;;;;;5022376;28;45550;-84
2021/09/19 00:55:17;;;;;;;;;9.00;7.25;;;;;;;;5037686;28;46175;-84
2021/09/19 00:57:44;;;;;;;;;7.75;7.75;;;;;;;;5025829;28;45247;-84
2021/09/19 01:00:11;;;;;;;;;8.75;6.25;;;;;;;;5041683;28;45501;-84
2021/09/19 01:02:36;;;;;;;;;7.00;6.00;;;;;;;;5039807;28;45525;-84
2021/09/19 01:05:01;;;;;;;;;7.00;7.00;;;;;;;;5038496;28;45908;-84
2021/09/19 01:07:27;;;;;;;;;9.50;7.00;;;;;;;;5032568;28;45380;-84
2021/09/19 01:09:53;;;;;;;;;5.25;5.25;;;;;;;;5039301;28;45986;-84
2021/09/19 01:12:20;;;;;;;;;8.25;8.00;;;;;;;;5039343;28;45759;-84
2021/09/19 01:14:47;;;;;;;;;6.75;6.75;;;;;;;;5032961;28;47111;-84
2021/09/19 01:17:13;;;;;;;;;8.25;6.00;;;;;;;;5030995;28;45489;-84
2021/09/19 01:19:39;;;;;;;;;8.50;7.50;;;;;;;;5039285;28;45418;-84
2021/09/19 01:22:04;;;;;;;;;9.50;9.00;;;;;;;;5039027;28;45461;-84
2021/09/19 01:24:30;;;;;;;;;8.25;7.25;;;;;;;;5038855;28;45612;-83
2021/09/19 01:26:55;;;;;;;;;9.00;9.00;;;;;;;;5039124;28;45477;-84
2021/09/19 01:29:20;;;;;;;;;8.25;8.25;;;;;;;;5039253;28;45406;-83
2021/09/19 01:31:46;;;;;;;;;8.00;7.50;;;;;;;;5039219;28;45406;-84
2021/09/19 01:34:11;;;;;;;;;12.00;7.50;;;;;;;;5038619;28;46302;-84
2021/09/19 01:36:37;;;;;;;;;11.00;8.00;;;;;;;;5037997;28;45319;-84
2021/09/19 01:39:06;;;;;;;;;9.00;7.50;;;;;;;;5037644;28;45394;-84
2021/09/19 01:41:32;;;;;;;;;8.50;8.00;;;;;;;;5040374;28;45326;-84
2021/09/19 01:43:57;;;;;;;;;9.00;8.00;;;;;;;;5042972;28;46033;-84
2021/09/19 01:46:22;;;;;;;;;10.00;9.00;;;;;;;;5040116;28;46098;-84
2021/09/19 01:48:47;;;;;;;;;12.75;9.25;;;;;;;;5039486;28;45625;-84
2021/09/19 01:51:13;;;;;;;;;11.00;10.00;;;;;;;;5031209;28;45412;-83
2021/09/19 01:53:38;;;;;;;;;12.33;9.00;;;;;;;;5038099;28;45657;-84
2021/09/19 01:56:04;;;;;;;;;13.75;10.25;;;;;;;;5016998;28;45637;-84
2021/09/19 01:58:29;;;;;;;;;11.00;10.00;;;;;;;;5038098;28;45399;-83
2021/09/19 02:01:02;;;;;;;;;8.50;8.00;;;;;;;;5024150;28;45488;-84
2021/09/19 02:03:27;;;;;;;;;11.25;10.00;;;;;;;;5064506;28;45984;-84
2021/09/19 02:05:52;;;;;;;;;10.33;9.33;;;;;;;;5041964;28;45535;-84
2021/09/19 02:08:18;;;;;;;;;8.50;7.50;;;;;;;;5041836;28;45389;-84
2021/09/19 02:10:43;;;;;;;;;9.50;8.25;;;;;;;;5041837;28;45291;-84
2021/09/19 02:13:08;;;;;;;;;8.50;8.00;;;;;;;;5028500;28;47157;-84
2021/09/19 02:15:34;;;;;;;;;10.50;10.00;;;;;;;;5026391;28;45458;-84
2021/09/19 02:17:59;;;;;;;;;11.50;9.00;;;;;;;;5041584;28;45383;-84
2021/09/19 02:20:25;;;;;;;;;10.50;10.50;;;;;;;;5040809;28;45560;-83
2021/09/19 02:22:50;;;;;;;;;14.75;10.00;;;;;;;;5023537;28;47428;-84
2021/09/19 02:25:15;;;;;;;;;8.50;8.50;;;;;;;;5041723;28;45378;-84
2021/09/19 02:27:40;;;;;;;;;13.25;9.75;;;;;;;;5041955;28;45394;-84
2021/09/19 02:30:07;;;;;;;;;16.33;12.00;;;;;;;;5027126;28;45471;-84
2021/09/19 02:32:33;;;;;;;;;14.25;10.00;;;;;;;;5043580;28;45374;-84
2021/09/19 02:34:58;;;;;;;;;11.75;10.75;;;;;;;;5029700;28;45424;-84
2021/09/19 02:37:23;;;;;;;;;10.00;10.00;;;;;;;;5042618;28;45479;-84
2021/09/19 02:39:49;;;;;;;;;11.00;9.00;;;;;;;;5042341;28;45307;-84
2021/09/19 02:42:14;;;;;;;;;12.00;9.00;;;;;;;;5041501;28;46442;-84
2021/09/19 02:44:39;;;;;;;;;10.00;9.75;;;;;;;;5023424;28;45752;-84
2021/09/19 02:47:04;;;;;;;;;12.25;9.50;;;;;;;;5041790;28;45240;-83
2021/09/19 02:49:29;;;;;;;;;11.00;11.00;;;;;;;;5041270;28;45296;-84
2021/09/19 02:51:55;;;;;;;;;16.00;10.00;;;;;;;;5038625;28;45300;-84
2021/09/19 02:54:20;;;;;;;;;12.00;10.50;;;;;;;;5039831;28;45544;-83
2021/09/19 02:56:46;;;;;;;;;10.33;9.67;;;;;;;;5040061;28;45296;-83
2021/09/19 02:59:11;;;;;;;;;16.00;14.00;;;;;;;;5041333;28;45299;-84
2021/09/19 03:01:36;;;;;;;;;12.00;11.00;;;;;;;;5037996;28;45627;-83
2021/09/19 03:04:01;;;;;;;;;11.67;10.33;;;;;;;;5041017;28;45371;-83
2021/09/19 03:06:27;;;;;;;;;10.75;9.50;;;;;;;;5041452;28;45318;-84
2021/09/19 03:08:52;;;;;;;;;10.25;10.00;;;;;;;;5023038;28;45768;-84
2021/09/19 03:11:17;;;;;;;;;10.50;9.75;;;;;;;;5041308;28;45405;-82
2021/09/19 03:13:43;;;;;;;;;12.00;12.00;;;;;;;;5052814;28;45434;-82
2021/09/19 03:16:08;;;;;;;;;12.67;11.00;;;;;;;;5060477;28;44777;-82
2021/09/19 03:18:33;;;;;;;;;12.00;11.00;;;;;;;;5059388;28;45375;-83
2021/09/19 03:20:58;;;;;;;;;13.25;12.50;;;;;;;;5049058;28;45512;-82
2021/09/19 03:23:23;;;;;;;;;11.00;11.00;;;;;;;;5027317;28;45405;-83
2021/09/19 03:25:49;;;;;;;;;13.33;12.33;;;;;;;;5046541;28;45403;-83
2021/09/19 03:28:14;;;;;;;;;10.00;10.00;;;;;;;;5046518;28;45560;-83
2021/09/19 03:30:39;;;;;;;;;10.00;10.00;;;;;;;;5034261;28;47084;-82
2021/09/19 03:33:04;;;;;;;;;12.50;12.50;;;;;;;;5042486;28;45342;-83
2021/09/19 03:35:30;;;;;;;;;14.33;9.67;;;;;;;;5041798;28;45458;-83
2021/09/19 03:37:55;;;;;;;;;13.75;12.00;;;;;;;;5024292;28;45522;-82
2021/09/19 03:40:20;;;;;;;;;16.67;14.00;;;;;;;;5042996;28;46226;-82
2021/09/19 03:42:46;;;;;;;;;10.00;9.00;;;;;;;;5043740;28;45429;-83
2021/09/19 03:45:11;;;;;;;;;14.00;13.33;;;;;;;;5024986;28;45403;-83
2021/09/19 03:47:37;;;;;;;;;12.75;11.25;;;;;;;;5042633;28;45398;-83
2021/09/19 03:50:03;;;;;;;;;12.50;10.50;;;;;;;;5024054;28;48163;-83
2021/09/19 03:52:29;;;;;;;;;14.50;13.00;;;;;;;;5042311;28;45399;-83
2021/09/19 03:54:54;;;;;;;;;14.25;12.00;;;;;;;;5042153;28;45312;-83
2021/09/19 03:57:19;;;;;;;;;12.67;10.67;;;;;;;;5041617;28;45823;-83
2021/09/19 03:59:44;;;;;;;;;18.33;12.33;;;;;;;;5041590;28;45329;-83
2021/09/19 04:02:09;;;;;;;;;11.33;11.00;;;;;;;;5023622;28;45394;-83
2021/09/19 04:04:35;;;;;;;;;12.33;12.00;;;;;;;;5024775;28;45384;-83
2021/09/19 04:07:00;;;;;;;;;13.33;13.33;;;;;;;;5048377;28;45184;-83
2021/09/19 04:09:25;;;;;;;;;9.25;9.25;;;;;;;;5029006;28;48058;-83
2021/09/19 04:11:53;;;;;;;;;12.33;10.67;;;;;;;;5047635;28;45311;-83
2021/09/19 04:14:19;;;;;;;;;10.25;10.25;;;;;;;;5049369;28;45322;-83
2021/09/19 04:16:44;;;;;;;;;12.75;11.25;;;;;;;;5045502;28;45461;-82
2021/09/19 04:19:09;;;;;;;;;10.00;9.00;;;;;;;;5048269;28;45629;-82
2021/09/19 04:21:35;;;;;;;;;11.75;10.50;;;;;;;;5037529;28;45334;-82
2021/09/19 04:24:00;;;;;;;;;14.50;10.50;;;;;;;;5043861;28;45295;-83
2021/09/19 04:26:25;;;;;;;;;11.75;11.75;;;;;;;;5040866;28;45537;-83
2021/09/19 04:28:52;;;;;;;;;13.00;13.00;;;;;;;;5023768;28;47108;-82
2021/09/19 04:31:17;;;;;;;;;11.00;11.00;;;;;;;;5042397;28;45790;-82
2021/09/19 04:33:42;;;;;;;;;18.25;13.00;;;;;;;;5043219;28;45541;-83
2021/09/19 04:36:08;;;;;;;;;11.50;10.50;;;;;;;;5046395;28;45401;-82
2021/09/19 04:38:33;;;;;;;;;11.25;10.50;;;;;;;;5048054;28;45053;-82
2021/09/19 04:40:58;;;;;;;;;12.33;11.33;;;;;;;;5030506;28;45364;-83
2021/09/19 04:43:23;;;;;;;;;13.00;11.50;;;;;;;;5047083;28;45569;-82
2021/09/19 04:45:49;;;;;;;;;12.00;12.00;;;;;;;;5041923;28;45282;-83
2021/09/19 04:48:14;;;;;;;;;16.33;13.33;;;;;;;;5025058;28;47491;-83
2021/09/19 04:50:39;;;;;;;;;10.33;9.33;;;;;;;;5042849;28;45374;-82
2021/09/19 04:53:04;;;;;;;;;16.25;14.25;;;;;;;;5034288;28;45349;-83
2021/09/19 04:55:29;;;;;;;;;14.00;13.33;;;;;;;;5035535;28;45445;-82
2021/09/19 04:57:55;;;;;;;;;16.00;11.33;;;;;;;;5037128;28;47377;-82
2021/09/19 05:00:20;;;;;;;;;14.75;11.75;;;;;;;;5062601;28;45336;-82
2021/09/19 05:02:45;;;;;;;;;15.25;14.00;;;;;;;;5046774;28;44629;-82
2021/09/19 05:05:11;;;;;;;;;13.25;13.25;;;;;;;;5047925;28;45577;-81
2021/09/19 05:07:36;;;;;;;;;14.50;14.50;;;;;;;;5047414;28;45864;-83
2021/09/19 05:10:02;;;;;;;;;16.25;13.50;;;;;;;;5028807;28;45310;-83
2021/09/19 05:12:27;;;;;;;;;13.25;12.75;;;;;;;;5028786;28;45376;-83
2021/09/19 05:14:55;;;;;;;;;14.75;13.25;;;;;;;;5045192;28;45485;-83
2021/09/19 05:17:20;;;;;;;;;21.00;14.25;;;;;;;;5044794;28;46170;-83
2021/09/19 05:19:45;;;;;;;;;16.75;11.25;;;;;;;;5044432;28;45339;-83
2021/09/19 05:22:10;;;;;;;;;18.00;14.67;;;;;;;;5043178;28;45397;-83
2021/09/19 05:24:36;;;;;;;;;15.50;12.00;;;;;;;;5041899;28;45246;-83
2021/09/19 05:27:01;;;;;;;;;18.75;13.75;;;;;;;;5041505;28;45436;-83
2021/09/19 05:29:27;;;;;;;;;15.50;14.50;;;;;;;;5042755;28;45478;-83
2021/09/19 05:31:52;;;;;;;;;17.67;14.00;;;;;;;;5039895;28;45359;-83
2021/09/19 05:34:18;;;;;;;;;14.50;13.00;;;;;;;;5045516;28;45378;-83
2021/09/19 05:36:43;;;;;;;;;15.00;14.00;;;;;;;;5027136;28;46853;-83
2021/09/19 05:39:08;;;;;;;;;14.00;13.33;;;;;;;;5048843;28;45426;-83
2021/09/19 05:41:33;;;;;;;;;15.25;14.25;;;;;;;;5049048;28;45506;-83
2021/09/19 05:43:59;;;;;;;;;15.00;15.00;;;;;;;;5027366;28;45826;-83
2021/09/19 05:46:24;;;;;;;;;15.50;13.25;;;;;;;;5042990;28;46946;-83
2021/09/19 05:48:49;;;;;;;;;15.33;10.67;;;;;;;;5041813;28;45171;-83
2021/09/19 05:51:15;;;;;;;;;16.00;14.00;;;;;;;;5041005;28;45343;-83
2021/09/19 05:53:40;;;;;;;;;16.50;15.00;;;;;;;;5037448;28;45308;-83
2021/09/19 05:56:06;;;;;;;;;17.50;14.50;;;;;;;;5029069;28;48024;-83
2021/09/19 05:58:31;;;;;;;;;13.50;12.50;;;;;;;;5037635;28;45421;-83
2021/09/19 06:00:56;;;;;;;;;14.33;13.00;;;;;;;;5042852;28;45460;-83
2021/09/19 06:03:21;;;;;;;;;16.25;13.25;;;;;;;;5042105;28;45234;-83
2021/09/19 06:05:46;;;;;;;;;17.00;14.00;;;;;;;;5043070;28;45477;-83
2021/09/19 06:08:12;;;;;;;;;15.67;14.00;;;;;;;;5043056;28;45563;-83
2021/09/19 06:10:37;;;;;;;;;15.67;12.67;;;;;;;;5042387;28;45303;-83
2021/09/19 06:13:03;;;;;;;;;14.67;10.67;;;;;;;;5037582;28;45640;-83
2021/09/19 06:15:29;;;;;;;;;13.75;12.75;;;;;;;;5046002;28;46065;-83
2021/09/19 06:17:54;;;;;;;;;13.50;12.25;;;;;;;;5046368;28;45386;-83
2021/09/19 06:20:19;;;;;;;;;13.75;13.00;;;;;;;;5043708;28;45342;-83
2021/09/19 06:22:45;;;;;;;;;13.25;13.00;;;;;;;;5030088;28;45867;-83
2021/09/19 06:25:11;;;;;;;;;12.75;12.75;;;;;;;;5027420;28;46924;-83
2021/09/19 06:27:36;;;;;;;;;16.25;13.00;;;;;;;;5028010;28;45359;-82
2021/09/19 06:30:02;;;;;;;;;12.33;11.00;;;;;;;;5043026;28;45453;-83
2021/09/19 06:32:27;;;;;;;;;17.00;12.25;;;;;;;;5025474;28;45485;-83
2021/09/19 06:34:53;;;;;;;;;14.33;10.67;;;;;;;;5041879;28;45952;-83
2021/09/19 06:37:18;;;;;;;;;12.33;11.33;;;;;;;;5024752;28;45464;-83
2021/09/19 06:39:43;;;;;;;;;16.25;13.00;;;;;;;;5041697;28;45445;-83
2021/09/19 06:42:08;;;;;;;;;15.75;14.00;;;;;;;;5042750;28;45466;-83
2021/09/19 06:44:34;;;;;;;;;15.67;13.00;;;;;;;;5041183;28;46213;-83
2021/09/19 06:46:59;;;;;;;;;13.00;13.00;;;;;;;;5041977;28;45352;-83
2021/09/19 06:49:25;;;;;;;;;13.50;11.75;;;;;;;;5041693;28;45528;-83
2021/09/19 06:51:50;;;;;;;;;15.00;13.75;;;;;;;;5042614;28;45368;-84
2021/09/19 06:54:15;;;;;;;;;16.50;15.00;;;;;;;;5041564;28;45320;-83
2021/09/19 06:56:41;;;;;;;;;13.25;12.00;;;;;;;;5044567;28;45426;-83
2021/09/19 06:59:06;;;;;;;;;17.50;15.00;;;;;;;;5032564;28;45347;-84
2021/09/19 07:01:31;;;;;;;;;17.00;12.75;;;;;;;;5043822;28;45192;-83
2021/09/19 07:03:57;;;;;;;;;13.75;12.25;;;;;;;;5037030;28;47042;-83
2021/09/19 07:06:22;;;;;;;;;14.00;12.00;;;;;;;;5043431;28;45347;-84
2021/09/19 07:08:47;;;;;;;;;13.00;13.00;;;;;;;;5033665;28;45498;-83
2021/09/19 07:11:12;;;;;;;;;14.75;12.50;;;;;;;;5046959;28;44745;-83
2021/09/19 07:13:38;;;;;;;;;14.75;12.00;;;;;;;;5054286;28;45219;-81
2021/09/19 07:16:03;;;;;;;;;11.00;11.00;;;;;;;;5038119;28;44936;-82
2021/09/19 07:18:29;;;;;;;;;18.00;15.00;;;;;;;;5056783;28;45474;-84
2021/09/19 07:20:54;;;;;;;;;16.00;13.00;;;;;;;;5040568;28;45575;-83
2021/09/19 07:23:20;;;;;;;;;13.25;11.00;;;;;;;;5043449;28;45593;-84
2021/09/19 07:25:46;;;;;;;;;15.25;12.75;;;;;;;;5044485;28;45401;-83
2021/09/19 07:28:11;;;;;;;;;17.25;14.00;;;;;;;;5026635;28;45347;-84
2021/09/19 07:30:37;;;;;;;;;14.00;14.00;;;;;;;;5041381;28;45545;-84
2021/09/19 07:33:02;;;;;;;;;14.75;14.00;;;;;;;;5034924;28;47109;-84
2021/09/19 07:35:28;;;;;;;;;16.75;13.50;;;;;;;;5026678;28;45387;-84
2021/09/19 07:37:53;;;;;;;;;14.50;13.75;;;;;;;;5042016;28;45425;-84
2021/09/19 07:40:19;;;;;;;;;14.25;13.00;;;;;;;;5026062;28;45385;-84
2021/09/19 07:42:45;;;;;;;;;15.00;13.50;;;;;;;;5043052;28;46021;-85
2021/09/19 07:45:10;;;;;;;;;14.50;13.25;;;;;;;;5024071;28;45876;-85
2021/09/19 07:47:35;;;;;;;;;17.00;13.00;;;;;;;;5022458;28;45422;-85
2021/09/19 07:50:01;;;;;;;;;15.00;12.00;;;;;;;;5040352;28;45651;-86
2021/09/19 07:52:26;;;;;;;;;16.25;13.00;;;;;;;;5035248;28;47446;-86
2021/09/19 07:54:54;;;;;;;;;12.75;12.00;;;;;;;;5042907;28;45378;-85
2021/09/19 07:57:19;;;;;;;;;13.00;13.00;;;;;;;;5027527;28;45462;-85
2021/09/19 07:59:45;;;;;;;;;16.25;13.50;;;;;;;;5044056;28;45493;-86
2021/09/19 08:02:10;;;;;;;;;12.25;10.75;;;;;;;;5026023;28;45931;-85
2021/09/19 08:04:35;;;;;;;;;14.00;12.00;;;;;;;;5041847;28;45358;-86
2021/09/19 08:07:00;;;;;;;;;12.75;12.75;;;;;;;;5024997;28;45371;-85
2021/09/19 08:09:26;;;;;;;;;16.50;14.25;;;;;;;;5026731;28;45611;-86
2021/09/19 08:11:53;;;;;;;;;15.00;15.00;;;;;;;;5053860;28;45497;-86
2021/09/19 08:14:18;;;;;;;;;15.25;13.50;;;;;;;;5043643;28;45396;-85
2021/09/19 08:16:43;;;;;;;;;16.25;14.75;;;;;;;;5039855;28;45445;-86
2021/09/19 08:19:09;;;;;;;;;21.00;15.25;;;;;;;;5024853;28;45431;-87
2021/09/19 08:21:36;;;;;;;;;12.50;12.50;;;;;;;;5040310;28;46231;-86
2021/09/19 08:24:02;;;;;;;;;17.75;15.00;;;;;;;;5057258;28;44996;-85
2021/09/19 08:26:27;;;;;;;;;15.75;13.25;;;;;;;;5060808;28;45216;-82
2021/09/19 08:28:53;;;;;;;;;17.00;14.25;;;;;;;;5046229;28;45726;-86
2021/09/19 08:31:21;;;;;;;;;17.50;14.00;;;;;;;;5022910;28;46913;-86
2021/09/19 08:33:46;;;;;;;;;13.50;10.50;;;;;;;;5037460;28;45544;-87
2021/09/19 08:36:12;;;;;;;;;14.00;12.75;;;;;;;;5026058;28;45427;-83
2021/09/19 08:38:37;;;;;;;;;13.50;10.00;;;;;;;;5023810;28;45510;-88
2021/09/19 08:41:03;;;;;;;;;12.50;12.00;;;;;;;;5023176;28;46948;-90
2021/09/19 08:43:28;;;;;;;;;12.75;11.25;;;;;;;;5023723;28;45321;-86
2021/09/19 08:45:53;;;;;;;;;13.00;11.25;;;;;;;;5039993;28;45370;-87
2021/09/19 08:48:19;;;;;;;;;13.67;11.00;;;;;;;;5044655;28;45493;-87
2021/09/19 08:50:48;;;;;;;;;12.25;11.50;;;;;;;;5024594;28;47825;-90
2021/09/19 08:53:14;;;;;;;;;14.00;12.75;;;;;;;;5042249;28;45709;-92
2021/09/19 08:55:39;;;;;;;;;13.75;13.50;;;;;;;;5039566;28;45607;-91
2021/09/19 08:58:04;;;;;;;;;13.75;12.00;;;;;;;;5033747;28;45924;-89
2021/09/19 09:00:37;;;;;;;;;16.75;11.50;;;;;;;;5037782;28;46418;-91
2021/09/19 09:03:08;;;;;;;;;13.00;11.50;;;;;;;;5053069;28;45622;-89
2021/09/19 09:05:37;;;;;;;;;10.00;10.00;;;;;;;;5032044;28;45462;-87
2021/09/19 09:08:02;;;;;;;;;12.25;12.25;;;;;;;;5045540;28;45365;-89
2021/09/19 09:10:40;;;;;;;;;12.00;12.00;;;;;;;;5023493;28;48137;-88
2021/09/19 09:13:07;;;;;;;;;15.25;13.00;;;;;;;;5013113;28;45499;-87
2021/09/19 09:15:36;;;;;;;;;12.00;11.25;;;;;;;;5038795;28;45336;-86
2021/09/19 09:18:04;;;;;;;;;11.50;11.50;;;;;;;;5047659;28;45541;-86
2021/09/19 09:20:44;;;;;;;;;12.25;12.25;;;;;;;;5039365;28;46617;-87
2021/09/19 09:23:23;;;;;;;;;12.00;11.25;;;;;;;;5035015;28;45443;-86
2021/09/19 09:26:07;;;;;;;;;11.75;11.00;;;;;;;;5041027;28;45383;-84
2021/09/19 09:28:40;;;;;;;;;16.50;12.00;;;;;;;;5045739;28;45295;-83
2021/09/19 09:31:05;;;;;;;;;14.75;13.25;;;;;;;;5039782;28;45583;-84
2021/09/19 09:33:31;;;;;;;;;12.00;12.00;;;;;;;;5022544;28;46025;-86
2021/09/19 09:35:56;;;;;;;;;16.00;13.25;;;;;;;;5040108;28;45450;-86
2021/09/19 09:38:23;;;;;;;;;16.50;13.75;;;;;;;;5036840;28;45458;-84
2021/09/19 09:40:49;;;;;;;;;15.00;14.00;;;;;;;;5040739;28;47342;-84
2021/09/19 09:43:15;;;;;;;;;14.50;12.25;;;;;;;;5049048;28;45932;-86
2021/09/19 09:45:43;;;;;;;;;15.00;14.50;;;;;;;;5025782;28;45547;-85
2021/09/19 09:48:27;;;;;;;;;13.25;12.50;;;;;;;;5041813;28;45379;-86
2021/09/19 09:50:54;;;;;;;;;17.75;15.25;;;;;;;;5022418;28;47364;-85
2021/09/19 09:53:21;;;;;;;;;14.25;14.00;;;;;;;;5046112;28;45336;-84
2021/09/19 09:55:47;;;;;;;;;16.00;14.00;;;;;;;;5038039;28;45497;-83
2021/09/19 09:58:14;;;;;;;;;17.50;13.00;;;;;;;;5051060;28;45582;-84
2021/09/19 10:00:39;;;;;;;;;19.25;15.25;;;;;;;;5036836;28;46052;-87
2021/09/19 10:03:05;;;;;;;;;17.50;15.50;;;;;;;;5056772;28;45460;-85
2021/09/19 10:05:30;;;;;;;;;18.00;16.00;;;;;;;;5045149;28;45374;-88
2021/09/19 10:07:57;;;;;;;;;16.75;16.25;;;;;;;;5043431;28;45456;-84
2021/09/19 10:10:23;;;;;;;;;13.50;13.50;;;;;;;;5042265;28;45508;-84
2021/09/19 10:12:49;;;;;;;;;15.50;12.50;;;;;;;;5039201;28;45527;-84
2021/09/19 10:15:15;;;;;;;;;14.00;12.25;;;;;;;;5039993;28;45239;-84
2021/09/19 10:17:43;;;;;;;;;14.50;13.50;;;;;;;;5038933;28;45228;-85
2021/09/19 10:20:11;;;;;;;;;14.25;13.00;;;;;;;;5039633;28;45341;-85
2021/09/19 10:22:59;;;;;;;;;17.00;15.25;;;;;;;;5041521;28;45743;-85
2021/09/19 10:25:25;;;;;;;;;17.50;15.00;;;;;;;;5024271;28;45541;-85
2021/09/19 10:27:50;;;;;;;;;14.00;14.00;;;;;;;;5042180;28;45525;-88
2021/09/19 10:30:18;;;;;;;;;15.75;14.00;;;;;;;;5043172;28;45297;-85
2021/09/19 10:32:44;;;;;;;;;15.25;14.75;;;;;;;;5049044;28;45463;-85
2021/09/19 10:35:15;;;;;;;;;16.75;15.25;;;;;;;;5047659;28;45492;-84
2021/09/19 10:37:51;;;;;;;;;13.50;13.50;;;;;;;;5043402;28;45502;-86
2021/09/19 10:40:39;;;;;;;;;15.75;14.25;;;;;;;;5030585;28;47025;-85
2021/09/19 10:43:23;;;;;;;;;14.25;12.00;;;;;;;;5045486;28;45425;-86
2021/09/19 10:45:52;;;;;;;;;15.50;13.75;;;;;;;;5036522;28;45328;-84
2021/09/19 10:48:25;;;;;;;;;13.75;13.75;;;;;;;;5048894;28;45303;-86
2021/09/19 10:50:59;;;;;;;;;13.00;12.00;;;;;;;;5030974;28;47704;-86
2021/09/19 10:53:28;;;;;;;;;15.25;15.25;;;;;;;;5039325;28;45605;-85
2021/09/19 10:55:59;;;;;;;;;16.75;15.00;;;;;;;;5053624;28;46825;-86
2021/09/19 10:58:29;;;;;;;;;15.25;14.50;;;;;;;;5042847;28;45446;-85
2021/09/19 11:01:06;;;;;;;;;15.25;15.25;;;;;;;;5040642;28;45398;-84
2021/09/19 11:03:31;;;;;;;;;16.25;13.75;;;;;;;;5024249;28;45439;-84
2021/09/19 11:05:57;;;;;;;;;15.25;13.25;;;;;;;;5041156;28;45314;-84
2021/09/19 11:08:28;;;;;;;;;15.00;15.00;;;;;;;;5036978;28;45469;-84
2021/09/19 11:10:55;;;;;;;;;13.25;13.25;;;;;;;;5034964;28;46543;-84
2021/09/19 11:13:20;;;;;;;;;19.00;15.50;;;;;;;;5036212;28;45815;-84
2021/09/19 11:16:04;;;;;;;;;17.00;15.33;;;;;;;;5037401;28;45421;-84
2021/09/19 11:18:47;;;;;;;;;10.75;8.50;;;;;;;;5036051;28;45569;-85
2021/09/19 11:21:18;;;;;;;;;13.50;12.50;;;;;;;;5029244;28;47714;-84
2021/09/19 11:23:46;;;;;;;;;12.75;12.50;;;;;;;;5035604;28;45360;-85
2021/09/19 11:26:14;;;;;;;;;11.50;10.25;;;;;;;;5022571;28;45548;-86
2021/09/19 11:28:40;;;;;;;;;13.75;12.50;;;;;;;;5041234;28;45386;-85
2021/09/19 11:31:05;;;;;;;;;14.25;13.00;;;;;;;;5043686;28;47353;-84
2021/09/19 11:33:31;;;;;;;;;16.75;15.25;;;;;;;;5041522;28;45542;-86
2021/09/19 11:36:00;;;;;;;;;10.75;10.25;;;;;;;;5042605;28;45219;-85
2021/09/19 11:38:25;;;;;;;;;17.75;15.00;;;;;;;;5046965;28;45326;-84
2021/09/19 11:40:56;;;;;;;;;14.50;13.00;;;;;;;;5048235;28;45474;-85
2021/09/19 11:43:23;;;;;;;;;16.00;14.00;;;;;;;;5040584;28;45631;-87
2021/09/19 11:45:48;;;;;;;;;9.50;9.50;;;;;;;;5039104;28;45537;-84
2021/09/19 11:48:14;;;;;;;;;15.25;13.50;;;;;;;;5042738;28;45565;-84
2021/09/19 11:50:39;;;;;;;;;15.00;13.33;;;;;;;;5038107;28;48374;-85
2021/09/19 11:53:06;;;;;;;;;18.50;15.75;;;;;;;;5038787;28;45821;-83
2021/09/19 11:55:32;;;;;;;;;15.00;13.75;;;;;;;;5041163;28;45481;-85
2021/09/19 11:57:58;;;;;;;;;14.25;11.75;;;;;;;;5042596;28;45381;-84
2021/09/19 12:00:28;;;;;;;;;12.50;11.25;;;;;;;;5053898;28;46274;-87
2021/09/19 12:02:54;;;;;;;;;17.50;14.25;;;;;;;;5041342;28;45366;-85
2021/09/19 12:05:22;;;;;;;;;16.00;13.50;;;;;;;;5042803;28;45629;-84
2021/09/19 12:07:48;;;;;;;;;17.50;14.00;;;;;;;;5045422;28;45477;-84
2021/09/19 12:10:13;;;;;;;;;16.00;12.75;;;;;;;;5039981;28;47280;-88
2021/09/19 12:12:38;;;;;;;;;14.25;13.75;;;;;;;;5023757;28;45666;-85
2021/09/19 12:15:04;;;;;;;;;11.33;11.33;;;;;;;;5042029;28;45504;-84
2021/09/19 12:17:29;;;;;;;;;14.00;14.00;;;;;;;;5055928;28;45409;-85
2021/09/19 12:19:56;;;;;;;;;13.50;13.50;;;;;;;;5024183;28;47048;-84
2021/09/19 12:22:23;;;;;;;;;12.25;12.25;;;;;;;;5032787;28;45395;-85
2021/09/19 12:24:52;;;;;;;;;15.75;15.75;;;;;;;;5044609;28;45577;-85
2021/09/19 12:27:19;;;;;;;;;17.50;17.50;;;;;;;;5063585;28;45777;-86
2021/09/19 12:30:03;;;;;;;;;17.75;17.75;;;;;;;;5023265;28;47295;-85
2021/09/19 12:32:40;;;;;;;;;16.50;15.75;;;;;;;;5038320;28;45920;-84
2021/09/19 12:35:07;;;;;;;;;14.75;13.75;;;;;;;;5040026;28;45468;-85
2021/09/19 12:37:33;;;;;;;;;14.00;13.00;;;;;;;;5033599;28;46212;-84
2021/09/19 12:40:08;;;;;;;;;16.50;14.75;;;;;;;;5047146;28;46345;-84
2021/09/19 12:42:33;;;;;;;;;14.00;13.50;;;;;;;;5046915;28;45611;-85
2021/09/19 12:44:59;;;;;;;;;16.50;15.50;;;;;;;;5027004;28;45296;-85
2021/09/19 12:47:28;;;;;;;;;13.75;13.75;;;;;;;;5041196;28;45195;-86
2021/09/19 12:49:53;;;;;;;;;14.25;13.00;;;;;;;;5041151;28;46419;-86
2021/09/19 12:52:18;;;;;;;;;15.50;14.25;;;;;;;;5041351;28;45431;-87
2021/09/19 12:54:46;;;;;;;;;17.33;14.67;;;;;;;;5037734;28;45534;-85
2021/09/19 12:57:11;;;;;;;;;17.00;16.25;;;;;;;;5038679;28;45502;-86
2021/09/19 12:59:36;;;;;;;;;14.50;13.75;;;;;;;;5030934;28;47073;-86
2021/09/19 13:02:01;;;;;;;;;12.33;12.33;;;;;;;;5017694;28;45435;-85
2021/09/19 13:04:27;;;;;;;;;15.50;14.00;;;;;;;;5045393;28;45422;-86
2021/09/19 13:06:52;;;;;;;;;16.50;15.00;;;;;;;;5038967;28;45351;-86
2021/09/19 13:09:17;;;;;;;;;16.75;16.00;;;;;;;;5040815;28;45450;-86
2021/09/19 13:11:43;;;;;;;;;16.75;15.75;;;;;;;;5037002;28;45437;-86
2021/09/19 13:14:08;;;;;;;;;19.00;17.50;;;;;;;;5032657;28;45590;-86
2021/09/19 13:16:34;;;;;;;;;17.50;17.50;;;;;;;;5036569;28;45407;-85
2021/09/19 13:19:00;;;;;;;;;14.50;13.00;;;;;;;;5022263;28;47003;-86
2021/09/19 13:21:25;;;;;;;;;18.25;15.00;;;;;;;;5020341;28;45372;-85
2021/09/19 13:23:50;;;;;;;;;16.75;15.00;;;;;;;;5038477;28;45393;-86
2021/09/19 13:26:15;;;;;;;;;18.00;17.33;;;;;;;;5041144;28;45651;-84
2021/09/19 13:28:41;;;;;;;;;15.67;14.00;;;;;;;;5019196;28;47131;-86
2021/09/19 13:31:06;;;;;;;;;14.50;12.75;;;;;;;;5019828;28;45714;-84
2021/09/19 13:33:32;;;;;;;;;15.00;13.25;;;;;;;;5018107;28;45458;-84
2021/09/19 13:35:58;;;;;;;;;13.25;12.50;;;;;;;;5037567;28;45759;-86
2021/09/19 13:38:23;;;;;;;;;15.50;14.25;;;;;;;;5035654;28;45749;-86
2021/09/19 13:40:48;;;;;;;;;13.00;13.00;;;;;;;;5036419;28;45427;-86
2021/09/19 13:43:13;;;;;;;;;15.25;14.00;;;;;;;;5037173;28;45556;-87
2021/09/19 13:45:39;;;;;;;;;13.00;13.00;;;;;;;;5034507;28;45565;-88
2021/09/19 13:48:04;;;;;;;;;16.50;15.25;;;;;;;;5035047;28;45457;-86
2021/09/19 13:50:29;;;;;;;;;14.50;12.25;;;;;;;;5038281;28;45505;-85
2021/09/19 13:52:54;;;;;;;;;15.25;14.50;;;;;;;;5042700;28;44856;-84
2021/09/19 13:55:20;;;;;;;;;17.00;15.00;;;;;;;;5026409;28;45232;-85
2021/09/19 13:57:45;;;;;;;;;13.25;13.25;;;;;;;;5042476;28;45208;-85
2021/09/19 14:00:10;;;;;;;;;10.50;10.50;;;;;;;;5026103;28;45437;-86
2021/09/19 14:02:36;;;;;;;;;14.50;13.00;;;;;;;;5056102;28;45985;-84
2021/09/19 14:05:03;;;;;;;;;12.75;12.75;;;;;;;;5052431;28;45387;-85
2021/09/19 14:07:28;;;;;;;;;12.75;10.75;;;;;;;;5036597;28;46111;-86
2021/09/19 14:09:53;;;;;;;;;13.67;13.67;;;;;;;;5054447;28;45340;-86
2021/09/19 14:12:19;;;;;;;;;14.67;12.00;;;;;;;;5055289;28;45402;-85
2021/09/19 14:14:44;;;;;;;;;15.25;14.25;;;;;;;;5044879;28;45510;-86
2021/09/19 14:17:10;;;;;;;;;16.33;13.67;;;;;;;;5028300;28;48271;-85